Time;durP1;ratioP1;P1;durP2;ratioP2;P2;SDS_P1;SDS_P2;PMS_P1;PMS_P2;Temp;Humidity;BMP_temperature;BMP_pressure;BME280_temperature;BME280_humidity;BME280_pressure;Samples;Min_cycle;Max_cycle;Signal;HPM_P1;HPM_P2
2023/03/24 01:32:17;;;;;;;3.40;1.60;;;;;;;16.48;74.83;100319.19;12487769;23;97670;-81
2023/03/24 01:37:26;;;;;;;4.05;2.10;;;;;;;16.48;74.71;100307.75;12491667;23;96656;-82
2023/03/24 01:42:29;;;;;;;4.78;1.52;;;;;;;16.58;74.51;100306.22;12490946;23;96645;-82
2023/03/24 01:47:38;;;;;;;3.30;1.38;;;;;;;16.60;74.46;100307.81;12491491;23;97041;-82
2023/03/24 01:52:55;;;;;;;3.88;1.80;;;;;;;16.56;74.76;100285.06;12491257;23;97210;-83
2023/03/24 01:58:01;;;;;;;7.50;1.73;;;;;;;16.60;74.46;100280.41;12492151;23;96756;-81
2023/03/24 02:03:18;;;;;;;5.05;1.50;;;;;;;16.59;74.59;100262.75;12492201;23;96681;-82
2023/03/24 02:08:28;;;;;;;4.80;2.40;;;;;;;16.59;74.69;100279.53;12494135;23;96658;-81
2023/03/24 02:13:31;;;;;;;6.45;2.13;;;;;;;16.62;75.14;100267.84;12493555;23;97132;-81
2023/03/24 02:18:48;;;;;;;6.15;1.98;;;;;;;16.64;75.04;100268.59;12544095;23;96651;-81
2023/03/24 02:24:28;;;;;;;4.47;2.10;;;;;;;16.60;75.52;100278.56;12554605;23;96616;-81
2023/03/24 02:30:05;;;;;;;4.43;1.88;;;;;;;16.60;75.18;100253.84;12554758;23;96987;-82
2023/03/24 02:35:55;;;;;;;3.85;2.03;;;;;;;16.56;75.99;100255.84;12554390;23;96750;-82
2023/03/24 02:41:17;;;;;;;3.08;1.60;;;;;;;16.57;75.54;100248.69;12450683;23;97525;-81
2023/03/24 02:46:24;;;;;;;4.38;1.73;;;;;;;16.56;76.31;100268.25;12554591;23;96639;-82
2023/03/24 02:51:39;;;;;;;5.75;1.90;;;;;;;16.51;76.35;100257.94;12554376;23;97189;-82
2023/03/24 02:56:56;;;;;;;4.75;2.42;;;;;;;16.40;77.93;100247.13;12553509;23;96668;-82
2023/03/24 03:02:08;;;;;;;4.22;2.13;;;;;;;16.25;78.83;100263.16;12554036;23;96656;-81
2023/03/24 03:07:20;;;;;;;2.83;1.60;;;;;;;16.11;80.11;100257.84;12553955;23;96728;-83
2023/03/24 03:12:32;;;;;;;4.72;2.13;;;;;;;16.10;80.22;100264.94;12554126;23;96818;-82
2023/03/24 03:17:40;;;;;;;3.95;1.90;;;;;;;16.08;80.91;100263.34;12554295;23;97024;-82
2023/03/24 03:22:48;;;;;;;4.15;2.17;;;;;;;16.04;80.61;100252.06;12554113;23;96981;-81
2023/03/24 03:28:04;;;;;;;7.65;2.97;;;;;;;16.13;80.02;100253.28;12554036;23;96641;-81
2023/03/24 03:33:27;;;;;;;;;;;;;;;;;;;;;
2023/03/24 04:41:00;;;;;;;9.18;2.22;;;;;;;16.21;77.90;100253.66;12489614;23;96908;-81
2023/03/24 04:46:08;;;;;;;6.70;2.53;;;;;;;16.21;77.41;100248.34;12492157;23;96659;-82
2023/03/24 04:51:25;;;;;;;;;;;;;;;;;;;;;
2023/03/24 04:56:42;;;;;;;7.88;2.83;;;;;;;15.91;80.19;100267.88;12491602;23;96828;-81
2023/03/24 05:02:10;;;;;;;8.98;2.97;;;;;;;15.83;80.98;100287.88;12490152;23;96794;-80
2023/03/24 05:07:16;;;;;;;6.65;2.22;;;;;;;15.80;81.46;100317.25;12491703;23;96934;-82
2023/03/24 05:12:23;;;;;;;2.22;1.05;;;;;;;15.50;82.48;100346.44;12491855;23;96832;-80
2023/03/24 05:17:26;;;;;;;3.33;0.90;;;;;;;15.38;82.03;100351.59;12491586;23;96914;-80
2023/03/24 05:22:33;;;;;;;0.82;0.50;;;;;;;15.21;82.34;100373.75;12491943;23;96863;-79
2023/03/24 05:27:38;;;;;;;0.80;0.30;;;;;;;15.07;82.34;100378.09;12491625;23;96699;-80
2023/03/24 05:32:46;;;;;;;1.10;0.25;;;;;;;15.03;82.12;100395.09;12493185;23;96672;-80
2023/03/24 05:37:52;;;;;;;0.38;0.15;;;;;;;15.00;82.26;100433.25;12494100;23;97277;-81
2023/03/24 05:42:59;;;;;;;0.57;0.30;;;;;;;15.05;81.78;100447.09;12493159;23;97120;-80
2023/03/24 05:48:04;;;;;;;1.38;0.20;;;;;;;15.03;81.92;100451.63;12494291;23;96854;-79
2023/03/24 05:53:08;;;;;;;2.67;0.20;;;;;;;15.01;81.88;100472.03;12494084;23;96707;-80
2023/03/24 05:58:15;;;;;;;0.65;0.20;;;;;;;14.97;81.91;100473.16;12493956;23;96685;-80
2023/03/24 06:03:18;;;;;;;0.47;0.30;;;;;;;15.04;82.09;100471.03;12493482;23;96660;-81
2023/03/24 06:08:23;;;;;;;1.08;0.30;;;;;;;15.00;82.03;100491.53;12492923;23;96847;-81
2023/03/24 06:13:29;;;;;;;1.42;0.30;;;;;;;14.92;82.13;100498.19;12494402;23;96671;-82
2023/03/24 06:18:42;;;;;;;1.17;0.30;;;;;;;14.87;82.53;100505.53;12494694;23;96615;-81
2023/03/24 06:23:48;;;;;;;1.17;0.30;;;;;;;14.86;82.59;100496.72;12493542;23;96709;-81
2023/03/24 06:28:57;;;;;;;1.00;0.30;;;;;;;14.91;82.14;100504.41;12494118;23;96771;-81
2023/03/24 06:34:02;;;;;;;0.38;0.30;;;;;;;14.86;82.50;100536.47;12491987;23;96754;-81
2023/03/24 06:39:08;;;;;;;0.47;0.30;;;;;;;14.62;83.22;100537.75;12489104;23;96948;-82
2023/03/24 06:44:14;;;;;;;;;;;;;;;14.31;84.08;100575.53;12494096;23;97467;-82
2023/03/24 06:49:18;;;;;;;1.55;0.30;;;;;;;14.42;82.10;100598.81;12494753;23;96720;-82
2023/03/24 06:54:21;;;;;;;3.40;0.52;;;;;;;14.27;81.68;100605.72;12493918;23;96644;-81
2023/03/24 06:59:28;;;;;;;2.70;1.17;;;;;;;14.20;81.56;100614.88;12492866;23;96794;-81
2023/03/24 07:04:36;;;;;;;2.42;0.90;;;;;;;14.08;81.82;100638.41;12493730;23;96688;-81
2023/03/24 07:09:41;;;;;;;1.67;0.70;;;;;;;14.08;81.79;100635.78;12493337;23;96618;-82
2023/03/24 07:14:47;;;;;;;2.85;0.90;;;;;;;14.20;81.51;100645.78;12492698;23;97409;-81
2023/03/24 07:19:52;;;;;;;4.03;0.90;;;;;;;14.28;81.25;100655.06;12493676;23;96651;-81
2023/03/24 07:24:56;;;;;;;4.55;0.88;;;;;;;14.23;81.25;100654.44;12492568;23;96736;-81
2023/03/24 07:30:04;;;;;;;2.35;0.90;;;;;;;14.34;80.69;100664.50;12493128;23;96970;-81
2023/03/24 07:35:12;;;;;;;4.00;0.90;;;;;;;14.51;80.29;100672.47;12494359;23;96871;-82
2023/03/24 07:40:20;;;;;;;2.40;0.77;;;;;;;14.51;80.39;100681.28;12492919;23;96632;-82
2023/03/24 07:45:27;;;;;;;2.80;0.80;;;;;;;14.46;80.44;100693.03;12493273;23;96676;-82
2023/03/24 07:50:31;;;;;;;6.40;1.10;;;;;;;14.56;80.47;100696.94;12493502;23;96684;-82
2023/03/24 07:55:43;;;;;;;3.17;1.05;;;;;;;14.60;80.52;100696.75;12488978;23;96826;-82
2023/03/24 08:00:53;;;;;;;2.53;0.60;;;;;;;14.80;80.33;100703.69;12493466;23;96888;-82
2023/03/24 08:06:00;;;;;;;1.23;0.55;;;;;;;14.87;79.73;100717.50;12493187;23;96667;-82
2023/03/24 08:11:07;;;;;;;1.77;0.65;;;;;;;14.92;79.56;100713.69;12492623;23;96855;-81
2023/03/24 08:16:30;;;;;;;4.07;0.98;;;;;;;14.76;79.81;100720.69;12491807;23;96777;-81
2023/03/24 08:21:44;;;;;;;3.13;0.87;;;;;;;14.93;80.05;100733.09;12492474;23;96890;-81
2023/03/24 08:26:57;;;;;;;2.13;0.80;;;;;;;15.03;79.77;100739.63;12492727;23;96697;-81
2023/03/24 08:32:03;;;;;;;4.30;1.10;;;;;;;15.31;78.46;100756.78;12492603;23;97189;-81
2023/03/24 08:37:07;;;;;;;2.83;0.90;;;;;;;15.87;77.81;100762.63;12491716;23;96854;-81
2023/03/24 08:42:12;;;;;;;3.72;1.00;;;;;;;15.88;77.50;100774.09;12492963;23;96737;-82
2023/03/24 08:47:34;;;;;;;1.73;0.80;;;;;;;16.33;76.92;100779.59;12492433;23;97013;-81
2023/03/24 08:52:50;;;;;;;3.97;0.82;;;;;;;17.71;73.39;100799.09;12489731;23;96837;-82
2023/03/24 11:14:38;;;;;;;;;;;;;;;;;;;;;
2023/03/24 11:19:55;;;;;;;4.72;2.08;;;;;;;29.14;28.84;100915.06;12432780;23;96734;-82
2023/03/24 11:25:02;;;;;;;8.13;2.10;;;;;;;28.59;29.60;100913.72;12433660;23;96928;-83
2023/03/24 11:30:17;;;;;;;5.88;2.50;;;;;;;28.95;29.24;100909.88;12434202;23;97218;-82
2023/03/24 11:35:33;;;;;;;4.97;2.00;;;;;;;28.39;30.04;100906.84;12434106;23;96659;-83
2023/03/24 11:40:58;;;;;;;8.13;2.55;;;;;;;27.99;30.42;100912.75;12432246;23;97103;-83
2023/03/24 11:46:12;;;;;;;7.15;2.45;;;;;;;28.15;29.42;100916.59;12433704;23;96808;-83
2023/03/24 11:51:23;;;;;;;5.20;2.63;;;;;;;27.23;30.51;100923.22;12433581;23;96643;-83
2023/03/24 11:56:57;;;;;;;5.97;2.63;;;;;;;26.79;32.06;100925.66;12433929;23;96821;-81
2023/03/24 13:38:32;;;;;;;7.28;3.13;;;;;;;25.44;33.90;100898.91;12448320;23;99003;-82
2023/03/24 13:43:50;;;;;;;7.75;3.42;;;;;;;23.84;35.62;100914.91;12432255;23;97067;-81
2023/03/24 13:48:59;;;;;;;10.60;4.00;;;;;;;22.43;37.53;100917.50;12432796;23;96694;-80
2023/03/24 13:54:15;;;;;;;10.43;3.70;;;;;;;23.16;37.72;100917.03;12433926;23;96727;-80
2023/03/24 13:59:38;;;;;;;;;;;;;;;;;;;;;
2023/03/24 14:04:44;;;;;;;;;;;;;;;22.90;37.36;100921.81;12425211;23;96917;-80
2023/03/24 14:10:04;;;;;;;8.82;2.90;;;;;;;21.87;39.55;100915.59;12434978;23;96729;-81
2023/03/24 14:15:17;;;;;;;9.50;2.75;;;;;;;21.06;40.38;100916.31;12432344;23;96668;-80
2023/03/24 14:20:39;;;;;;;12.52;3.00;;;;;;;20.16;43.09;100927.16;12434293;23;96777;-81
2023/03/24 16:00:14;;;;;;;11.88;3.88;;;;;;;20.61;46.33;100906.22;12448695;23;97395;-81
2023/03/24 16:05:25;;;;;;;11.93;3.30;;;;;;;20.59;46.46;100909.00;12433158;23;96707;-82
2023/03/24 16:10:39;;;;;;;11.68;3.45;;;;;;;20.50;47.15;100911.50;12434076;23;96628;-81
2023/03/24 16:15:45;;;;;;;12.30;3.17;;;;;;;20.23;47.25;100909.72;12432573;23;96644;-83
2023/03/24 16:20:50;;;;;;;10.35;3.20;;;;;;;20.02;46.63;100910.34;12433211;23;96600;-81
2023/03/24 16:25:57;;;;;;;10.38;2.95;;;;;;;19.96;46.25;100924.13;12433442;23;96766;-83
2023/03/24 16:31:15;;;;;;;;;;;;;;;;;;;;;
2023/03/24 17:39:44;;;;;;;12.43;4.13;;;;;;;18.20;51.90;100936.34;12433524;23;96583;-82
2023/03/24 17:44:48;;;;;;;15.90;4.60;;;;;;;17.76;53.07;100946.94;12434427;23;96693;-82
2023/03/24 17:49:52;;;;;;;14.20;4.10;;;;;;;17.76;53.84;100954.94;12433173;23;96801;-82
2023/03/24 17:54:56;;;;;;;16.98;3.92;;;;;;;17.77;54.96;100972.63;12434384;23;96696;-81
2023/03/24 18:00:05;;;;;;;21.88;4.55;;;;;;;17.52;55.26;100990.09;12434375;23;96622;-81
2023/03/24 18:05:17;;;;;;;16.25;4.68;;;;;;;17.42;55.51;101013.66;12434117;23;96681;-80
2023/03/24 18:10:30;;;;;;;18.30;4.80;;;;;;;17.36;55.76;101016.66;12434358;23;96998;-82
2023/03/24 18:15:38;;;;;;;17.88;5.07;;;;;;;17.28;56.59;101036.63;12434341;23;97450;-82
2023/03/24 18:20:56;;;;;;;;;;;;;;;;;;;;;
2023/03/24 18:26:21;;;;;;;12.95;3.92;;;;;;;16.92;55.97;101018.22;12434959;23;96644;-81
2023/03/24 18:31:26;;;;;;;13.43;4.88;;;;;;;16.83;56.07;101035.50;12431321;23;96792;-82
2023/03/24 18:36:30;;;;;;;28.65;9.63;;;;;;;16.81;56.71;101044.50;12434296;23;96774;-82
2023/03/24 18:41:37;;;;;;;27.20;11.93;;;;;;;16.75;56.97;101050.16;12433057;23;96728;-81
2023/03/24 18:46:45;;;;;;;28.17;11.63;;;;;;;16.60;56.33;101057.09;12433580;23;96722;-82
2023/03/24 18:51:53;;;;;;;25.77;9.60;;;;;;;16.53;56.94;101068.16;12434206;23;96895;-82
2023/03/24 18:57:05;;;;;;;20.83;6.65;;;;;;;16.44;57.44;101072.13;12434128;23;96739;-80
2023/03/24 19:02:10;;;;;;;18.90;6.53;;;;;;;16.37;58.05;101073.34;12434021;23;96758;-82
